sensor_id;sensor_type;location;lat;lon;timestamp;pressure;altitude;pressure_sealevel;temperature;humidity
12879;BME280;20617;49.476;10.986;2022-12-18T00:01:48;99601.13;;;-7.37;100.00
12879;BME280;20617;49.476;10.986;2022-12-18T00:03:57;99603.63;;;-7.37;100.00
12879;BME280;20617;49.476;10.986;2022-12-18T00:06:06;99607.28;;;-7.32;100.00
12879;BME280;20617;49.476;10.986;2022-12-18T00:08:11;99595.59;;;-7.30;100.00
12879;BME280;20617;49.476;10.986;2022-12-18T00:10:18;99592.41;;;-7.25;100.00
12879;BME280;20617;49.476;10.986;2022-12-18T00:12:23;99593.25;;;-7.25;100.00
12879;BME280;20617;49.476;10.986;2022-12-18T00:14:31;99585.63;;;-7.26;100.00
12879;BME280;20617;49.476;10.986;2022-12-18T00:16:37;99583.94;;;-7.26;100.00
12879;BME280;20617;49.476;10.986;2022-12-18T00:18:44;99586.63;;;-7.23;100.00
12879;BME280;20617;49.476;10.986;2022-12-18T00:20:49;99586.38;;;-7.28;100.00
12879;BME280;20617;49.476;10.986;2022-12-18T00:22:55;99578.91;;;-7.26;100.00
12879;BME280;20617;49.476;10.986;2022-12-18T00:25:00;99578.09;;;-7.25;100.00
12879;BME280;20617;49.476;10.986;2022-12-18T00:27:04;99577.16;;;-7.27;100.00
12879;BME280;20617;49.476;10.986;2022-12-18T00:29:13;99574.41;;;-7.32;100.00
12879;BME280;20617;49.476;10.986;2022-12-18T00:31:19;99587.03;;;-7.32;100.00
12879;BME280;20617;49.476;10.986;2022-12-18T00:33:27;99582.44;;;-7.39;100.00
12879;BME280;20617;49.476;10.986;2022-12-18T00:35:34;99580.19;;;-7.51;100.00
12879;BME280;20617;49.476;10.986;2022-12-18T00:37:39;99589.38;;;-7.53;100.00
12879;BME280;20617;49.476;10.986;2022-12-18T00:39:48;99588.25;;;-7.58;100.00
12879;BME280;20617;49.476;10.986;2022-12-18T00:41:54;99593.06;;;-7.62;100.00
12879;BME280;20617;49.476;10.986;2022-12-18T00:44:13;99601.59;;;-7.60;100.00
12879;BME280;20617;49.476;10.986;2022-12-18T00:46:19;99595.94;;;-7.72;100.00
12879;BME280;20617;49.476;10.986;2022-12-18T00:48:24;99597.81;;;-7.68;100.00
12879;BME280;20617;49.476;10.986;2022-12-18T00:50:29;99593.81;;;-7.65;100.00
12879;BME280;20617;49.476;10.986;2022-12-18T00:52:39;99588.09;;;-7.61;100.00
12879;BME280;20617;49.476;10.986;2022-12-18T00:54:44;99588.50;;;-7.53;100.00
12879;BME280;20617;49.476;10.986;2022-12-18T00:56:49;99588.72;;;-7.48;100.00
12879;BME280;20617;49.476;10.986;2022-12-18T00:58:54;99588.81;;;-7.47;100.00
12879;BME280;20617;49.476;10.986;2022-12-18T01:00:59;99586.44;;;-7.44;100.00
12879;BME280;20617;49.476;10.986;2022-12-18T01:03:03;99600.91;;;-7.41;100.00
12879;BME280;20617;49.476;10.986;2022-12-18T01:05:10;99617.00;;;-7.39;100.00
12879;BME280;20617;49.476;10.986;2022-12-18T01:07:15;99605.06;;;-7.42;100.00
12879;BME280;20617;49.476;10.986;2022-12-18T01:09:23;99611.47;;;-7.48;100.00
12879;BME280;20617;49.476;10.986;2022-12-18T01:11:28;99609.03;;;-7.63;100.00
12879;BME280;20617;49.476;10.986;2022-12-18T01:13:32;99616.06;;;-7.74;100.00
12879;BME280;20617;49.476;10.986;2022-12-18T01:15:38;99611.69;;;-7.77;100.00
12879;BME280;20617;49.476;10.986;2022-12-18T01:17:45;99618.44;;;-7.77;100.00
12879;BME280;20617;49.476;10.986;2022-12-18T01:19:50;99616.53;;;-7.81;100.00
12879;BME280;20617;49.476;10.986;2022-12-18T01:21:54;99620.25;;;-7.75;100.00
12879;BME280;20617;49.476;10.986;2022-12-18T01:23:59;99620.50;;;-7.70;100.00
12879;BME280;20617;49.476;10.986;2022-12-18T01:26:08;99624.22;;;-7.63;100.00
12879;BME280;20617;49.476;10.986;2022-12-18T01:28:13;99622.63;;;-7.61;100.00
12879;BME280;20617;49.476;10.986;2022-12-18T01:30:18;99627.75;;;-7.60;100.00
12879;BME280;20617;49.476;10.986;2022-12-18T01:32:22;99635.44;;;-7.58;100.00
12879;BME280;20617;49.476;10.986;2022-12-18T01:34:27;99646.25;;;-7.61;100.00
12879;BME280;20617;49.476;10.986;2022-12-18T01:36:33;99649.75;;;-7.59;100.00
12879;BME280;20617;49.476;10.986;2022-12-18T01:38:39;99654.97;;;-7.56;100.00
12879;BME280;20617;49.476;10.986;2022-12-18T01:40:44;99666.97;;;-7.52;100.00
12879;BME280;20617;49.476;10.986;2022-12-18T01:42:52;99659.53;;;-7.48;100.00
12879;BME280;20617;49.476;10.986;2022-12-18T01:45:01;99653.50;;;-7.51;100.00
12879;BME280;20617;49.476;10.986;2022-12-18T01:47:04;99654.00;;;-7.41;100.00
12879;BME280;20617;49.476;10.986;2022-12-18T01:49:09;99652.81;;;-7.32;100.00
12879;BME280;20617;49.476;10.986;2022-12-18T01:51:16;99670.97;;;-7.22;100.00
12879;BME280;20617;49.476;10.986;2022-12-18T01:53:22;99675.50;;;-7.17;100.00
12879;BME280;20617;49.476;10.986;2022-12-18T01:55:30;99670.84;;;-7.09;100.00
12879;BME280;20617;49.476;10.986;2022-12-18T01:57:38;99676.91;;;-7.06;100.00
12879;BME280;20617;49.476;10.986;2022-12-18T01:59:50;99675.50;;;-7.00;100.00
12879;BME280;20617;49.476;10.986;2022-12-18T02:01:56;99673.88;;;-6.98;100.00
12879;BME280;20617;49.476;10.986;2022-12-18T02:04:19;99669.13;;;-6.92;100.00
12879;BME280;20617;49.476;10.986;2022-12-18T02:06:30;99667.06;;;-6.83;100.00
12879;BME280;20617;49.476;10.986;2022-12-18T02:08:40;99661.59;;;-6.74;100.00
12879;BME280;20617;49.476;10.986;2022-12-18T02:10:55;99672.94;;;-6.66;100.00
12879;BME280;20617;49.476;10.986;2022-12-18T02:13:08;99668.19;;;-6.60;100.00
12879;BME280;20617;49.476;10.986;2022-12-18T02:15:25;99668.34;;;-6.57;100.00
12879;BME280;20617;49.476;10.986;2022-12-18T02:17:35;99681.22;;;-6.52;100.00
12879;BME280;20617;49.476;10.986;2022-12-18T02:19:53;99668.78;;;-6.48;100.00
12879;BME280;20617;49.476;10.986;2022-12-18T02:22:13;99662.72;;;-6.51;100.00
12879;BME280;20617;49.476;10.986;2022-12-18T02:24:29;99661.03;;;-6.51;100.00
12879;BME280;20617;49.476;10.986;2022-12-18T02:26:42;99656.31;;;-6.43;100.00
12879;BME280;20617;49.476;10.986;2022-12-18T02:28:56;99653.31;;;-6.36;100.00
12879;BME280;20617;49.476;10.986;2022-12-18T02:31:06;99655.03;;;-6.35;100.00
12879;BME280;20617;49.476;10.986;2022-12-18T02:33:14;99657.78;;;-6.30;100.00
12879;BME280;20617;49.476;10.986;2022-12-18T02:35:22;99653.81;;;-6.25;100.00
12879;BME280;20617;49.476;10.986;2022-12-18T02:37:31;99651.47;;;-6.21;100.00
12879;BME280;20617;49.476;10.986;2022-12-18T02:39:42;99655.91;;;-6.17;100.00
12879;BME280;20617;49.476;10.986;2022-12-18T02:41:51;99659.38;;;-6.15;100.00
12879;BME280;20617;49.476;10.986;2022-12-18T02:44:01;99673.94;;;-6.10;100.00
12879;BME280;20617;49.476;10.986;2022-12-18T02:46:25;99683.19;;;-5.93;100.00
12879;BME280;20617;49.476;10.986;2022-12-18T02:48:34;99683.63;;;-5.82;100.00
12879;BME280;20617;49.476;10.986;2022-12-18T02:50:44;99688.25;;;-5.74;100.00
12879;BME280;20617;49.476;10.986;2022-12-18T02:52:59;99688.75;;;-5.63;100.00
12879;BME280;20617;49.476;10.986;2022-12-18T02:55:16;99690.09;;;-5.52;100.00
12879;BME280;20617;49.476;10.986;2022-12-18T02:57:40;99683.63;;;-5.45;100.00
12879;BME280;20617;49.476;10.986;2022-12-18T02:59:55;99680.44;;;-5.41;100.00
12879;BME280;20617;49.476;10.986;2022-12-18T03:02:09;99673.63;;;-5.42;100.00
12879;BME280;20617;49.476;10.986;2022-12-18T03:04:25;99667.75;;;-5.41;100.00
12879;BME280;20617;49.476;10.986;2022-12-18T03:06:35;99670.88;;;-5.47;100.00
12879;BME280;20617;49.476;10.986;2022-12-18T03:08:44;99664.00;;;-5.49;100.00
12879;BME280;20617;49.476;10.986;2022-12-18T03:10:55;99667.31;;;-5.50;100.00
12879;BME280;20617;49.476;10.986;2022-12-18T03:13:08;99656.84;;;-5.58;100.00
12879;BME280;20617;49.476;10.986;2022-12-18T03:15:19;99647.84;;;-5.51;100.00
12879;BME280;20617;49.476;10.986;2022-12-18T03:17:33;99653.25;;;-5.43;100.00
12879;BME280;20617;49.476;10.986;2022-12-18T03:19:39;99653.03;;;-5.48;100.00
12879;BME280;20617;49.476;10.986;2022-12-18T03:21:47;99662.25;;;-5.50;100.00
12879;BME280;20617;49.476;10.986;2022-12-18T03:23:54;99666.72;;;-5.44;100.00
12879;BME280;20617;49.476;10.986;2022-12-18T03:26:05;99684.03;;;-5.36;100.00
12879;BME280;20617;49.476;10.986;2022-12-18T03:28:20;99683.31;;;-5.33;100.00
12879;BME280;20617;49.476;10.986;2022-12-18T03:30:33;99675.81;;;-5.30;100.00
12879;BME280;20617;49.476;10.986;2022-12-18T03:32:46;99668.59;;;-5.21;100.00
12879;BME280;20617;49.476;10.986;2022-12-18T03:34:55;99676.28;;;-5.19;100.00
12879;BME280;20617;49.476;10.986;2022-12-18T03:37:06;99672.94;;;-5.18;100.00
12879;BME280;20617;49.476;10.986;2022-12-18T03:39:12;99674.09;;;-5.12;100.00
12879;BME280;20617;49.476;10.986;2022-12-18T03:41:27;99673.47;;;-5.06;100.00
12879;BME280;20617;49.476;10.986;2022-12-18T03:43:57;99673.81;;;-4.98;100.00
12879;BME280;20617;49.476;10.986;2022-12-18T03:46:15;99680.00;;;-4.92;100.00
12879;BME280;20617;49.476;10.986;2022-12-18T03:48:28;99685.75;;;-4.96;100.00
12879;BME280;20617;49.476;10.986;2022-12-18T03:50:47;99680.94;;;-4.90;100.00
12879;BME280;20617;49.476;10.986;2022-12-18T03:53:00;99668.19;;;-4.91;100.00
12879;BME280;20617;49.476;10.986;2022-12-18T03:55:08;99677.53;;;-4.90;100.00
12879;BME280;20617;49.476;10.986;2022-12-18T03:57:17;99670.03;;;-4.87;100.00
12879;BME280;20617;49.476;10.986;2022-12-18T03:59:29;99666.22;;;-4.78;100.00
12879;BME280;20617;49.476;10.986;2022-12-18T04:01:38;99672.56;;;-4.68;100.00
12879;BME280;20617;49.476;10.986;2022-12-18T04:03:48;99671.16;;;-4.60;100.00
12879;BME280;20617;49.476;10.986;2022-12-18T04:05:55;99672.13;;;-4.58;100.00
12879;BME280;20617;49.476;10.986;2022-12-18T04:08:03;99675.50;;;-4.57;100.00
12879;BME280;20617;49.476;10.986;2022-12-18T04:10:12;99685.94;;;-4.51;100.00
12879;BME280;20617;49.476;10.986;2022-12-18T04:12:19;99693.41;;;-4.54;100.00
12879;BME280;20617;49.476;10.986;2022-12-18T04:14:24;99689.16;;;-4.55;100.00
12879;BME280;20617;49.476;10.986;2022-12-18T04:16:33;99682.34;;;-4.56;100.00
12879;BME280;20617;49.476;10.986;2022-12-18T04:18:40;99685.50;;;-4.62;100.00
12879;BME280;20617;49.476;10.986;2022-12-18T04:20:45;99681.22;;;-4.63;100.00
12879;BME280;20617;49.476;10.986;2022-12-18T04:22:52;99681.28;;;-4.61;100.00
12879;BME280;20617;49.476;10.986;2022-12-18T04:24:57;99683.31;;;-4.73;100.00
12879;BME280;20617;49.476;10.986;2022-12-18T04:27:11;99679.50;;;-4.83;100.00
12879;BME280;20617;49.476;10.986;2022-12-18T04:29:21;99682.06;;;-4.83;100.00
12879;BME280;20617;49.476;10.986;2022-12-18T04:31:26;99687.91;;;-4.86;100.00
12879;BME280;20617;49.476;10.986;2022-12-18T04:33:33;99695.84;;;-4.97;100.00
12879;BME280;20617;49.476;10.986;2022-12-18T04:35:41;99692.06;;;-5.07;100.00
12879;BME280;20617;49.476;10.986;2022-12-18T04:37:47;99690.84;;;-5.15;100.00
12879;BME280;20617;49.476;10.986;2022-12-18T04:39:52;99692.25;;;-5.22;100.00
12879;BME280;20617;49.476;10.986;2022-12-18T04:42:05;99687.66;;;-5.31;100.00
12879;BME280;20617;49.476;10.986;2022-12-18T04:44:10;99702.81;;;-5.32;100.00
12879;BME280;20617;49.476;10.986;2022-12-18T04:46:14;99700.78;;;-5.39;100.00
12879;BME280;20617;49.476;10.986;2022-12-18T04:48:20;99698.72;;;-5.48;100.00
12879;BME280;20617;49.476;10.986;2022-12-18T04:50:31;99700.56;;;-5.44;100.00
12879;BME280;20617;49.476;10.986;2022-12-18T04:52:45;99703.47;;;-5.36;100.00
12879;BME280;20617;49.476;10.986;2022-12-18T04:54:50;99696.84;;;-5.33;100.00
12879;BME280;20617;49.476;10.986;2022-12-18T04:56:55;99696.47;;;-5.22;100.00
12879;BME280;20617;49.476;10.986;2022-12-18T04:59:00;99685.59;;;-5.20;100.00
12879;BME280;20617;49.476;10.986;2022-12-18T05:01:06;99679.09;;;-5.13;100.00
12879;BME280;20617;49.476;10.986;2022-12-18T05:03:11;99682.75;;;-5.07;100.00
12879;BME280;20617;49.476;10.986;2022-12-18T05:05:16;99688.19;;;-4.99;100.00
12879;BME280;20617;49.476;10.986;2022-12-18T05:07:23;99690.09;;;-4.93;100.00
12879;BME280;20617;49.476;10.986;2022-12-18T05:09:28;99682.81;;;-4.86;100.00
12879;BME280;20617;49.476;10.986;2022-12-18T05:11:36;99678.13;;;-4.76;100.00
12879;BME280;20617;49.476;10.986;2022-12-18T05:13:42;99674.06;;;-4.71;100.00
12879;BME280;20617;49.476;10.986;2022-12-18T05:15:51;99675.38;;;-4.60;100.00
12879;BME280;20617;49.476;10.986;2022-12-18T05:17:56;99679.00;;;-4.55;100.00
12879;BME280;20617;49.476;10.986;2022-12-18T05:20:01;99680.06;;;-4.50;100.00
12879;BME280;20617;49.476;10.986;2022-12-18T05:22:09;99676.78;;;-4.47;100.00
12879;BME280;20617;49.476;10.986;2022-12-18T05:24:17;99684.31;;;-4.49;100.00
12879;BME280;20617;49.476;10.986;2022-12-18T05:26:21;99691.28;;;-4.45;100.00
12879;BME280;20617;49.476;10.986;2022-12-18T05:28:28;99699.28;;;-4.36;100.00
12879;BME280;20617;49.476;10.986;2022-12-18T05:30:33;99697.75;;;-4.30;100.00
12879;BME280;20617;49.476;10.986;2022-12-18T05:32:38;99694.56;;;-4.26;100.00
12879;BME280;20617;49.476;10.986;2022-12-18T05:34:43;99699.75;;;-4.23;100.00
12879;BME280;20617;49.476;10.986;2022-12-18T05:36:48;99684.63;;;-4.20;100.00
12879;BME280;20617;49.476;10.986;2022-12-18T05:38:52;99691.31;;;-4.22;100.00
12879;BME280;20617;49.476;10.986;2022-12-18T05:41:00;99688.84;;;-4.21;100.00
12879;BME280;20617;49.476;10.986;2022-12-18T05:43:05;99697.25;;;-4.22;100.00
12879;BME280;20617;49.476;10.986;2022-12-18T05:45:10;99684.75;;;-4.17;100.00
12879;BME280;20617;49.476;10.986;2022-12-18T05:47:15;99681.59;;;-4.12;100.00
12879;BME280;20617;49.476;10.986;2022-12-18T05:49:20;99684.75;;;-4.17;100.00
12879;BME280;20617;49.476;10.986;2022-12-18T05:51:25;99690.28;;;-4.27;100.00
12879;BME280;20617;49.476;10.986;2022-12-18T05:53:29;99703.13;;;-4.24;100.00
12879;BME280;20617;49.476;10.986;2022-12-18T05:55:35;99688.66;;;-4.25;100.00
12879;BME280;20617;49.476;10.986;2022-12-18T05:57:43;99694.44;;;-4.29;100.00
12879;BME280;20617;49.476;10.986;2022-12-18T05:59:48;99694.13;;;-4.37;100.00
12879;BME280;20617;49.476;10.986;2022-12-18T06:01:53;99700.03;;;-4.38;100.00
12879;BME280;20617;49.476;10.986;2022-12-18T06:03:58;99692.19;;;-4.43;100.00
12879;BME280;20617;49.476;10.986;2022-12-18T06:06:11;99700.75;;;-4.41;100.00
12879;BME280;20617;49.476;10.986;2022-12-18T06:08:16;99706.69;;;-4.40;100.00
12879;BME280;20617;49.476;10.986;2022-12-18T06:10:21;99711.63;;;-4.45;100.00
12879;BME280;20617;49.476;10.986;2022-12-18T06:12:26;99714.94;;;-4.46;100.00
12879;BME280;20617;49.476;10.986;2022-12-18T06:14:33;99717.25;;;-4.52;100.00
12879;BME280;20617;49.476;10.986;2022-12-18T06:16:38;99712.72;;;-4.59;100.00
12879;BME280;20617;49.476;10.986;2022-12-18T06:18:43;99708.97;;;-4.67;100.00
12879;BME280;20617;49.476;10.986;2022-12-18T06:20:54;99710.41;;;-4.74;100.00
12879;BME280;20617;49.476;10.986;2022-12-18T06:22:59;99711.06;;;-4.78;100.00
12879;BME280;20617;49.476;10.986;2022-12-18T06:25:05;99706.59;;;-4.84;100.00
12879;BME280;20617;49.476;10.986;2022-12-18T06:27:11;99713.34;;;-4.84;100.00
12879;BME280;20617;49.476;10.986;2022-12-18T06:29:15;99711.94;;;-4.78;100.00
12879;BME280;20617;49.476;10.986;2022-12-18T06:31:23;99716.22;;;-4.76;100.00
12879;BME280;20617;49.476;10.986;2022-12-18T06:33:28;99726.56;;;-4.72;100.00
12879;BME280;20617;49.476;10.986;2022-12-18T06:35:33;99726.91;;;-4.64;100.00
12879;BME280;20617;49.476;10.986;2022-12-18T06:37:38;99729.81;;;-4.55;100.00
12879;BME280;20617;49.476;10.986;2022-12-18T06:39:43;99730.81;;;-4.51;100.00
12879;BME280;20617;49.476;10.986;2022-12-18T06:41:47;99734.53;;;-4.43;100.00
12879;BME280;20617;49.476;10.986;2022-12-18T06:43:52;99738.19;;;-4.37;100.00
12879;BME280;20617;49.476;10.986;2022-12-18T06:46:01;99735.13;;;-4.29;100.00
12879;BME280;20617;49.476;10.986;2022-12-18T06:48:09;99734.53;;;-4.22;100.00
12879;BME280;20617;49.476;10.986;2022-12-18T06:50:14;99730.63;;;-4.14;100.00
12879;BME280;20617;49.476;10.986;2022-12-18T06:52:19;99726.38;;;-4.15;100.00
12879;BME280;20617;49.476;10.986;2022-12-18T06:54:24;99727.28;;;-4.13;100.00
12879;BME280;20617;49.476;10.986;2022-12-18T06:56:28;99723.81;;;-4.15;100.00
12879;BME280;20617;49.476;10.986;2022-12-18T06:58:33;99726.28;;;-4.17;100.00
12879;BME280;20617;49.476;10.986;2022-12-18T07:00:38;99739.63;;;-4.22;100.00
12879;BME280;20617;49.476;10.986;2022-12-18T07:02:44;99738.84;;;-4.21;100.00
12879;BME280;20617;49.476;10.986;2022-12-18T07:04:54;99742.38;;;-4.18;100.00
12879;BME280;20617;49.476;10.986;2022-12-18T07:06:59;99740.56;;;-4.20;100.00
12879;BME280;20617;49.476;10.986;2022-12-18T07:09:04;99740.06;;;-4.12;100.00
12879;BME280;20617;49.476;10.986;2022-12-18T07:11:09;99737.72;;;-4.07;100.00
12879;BME280;20617;49.476;10.986;2022-12-18T07:13:13;99727.47;;;-4.08;100.00
12879;BME280;20617;49.476;10.986;2022-12-18T07:15:18;99725.50;;;-4.16;100.00
12879;BME280;20617;49.476;10.986;2022-12-18T07:17:23;99727.66;;;-4.25;100.00
12879;BME280;20617;49.476;10.986;2022-12-18T07:19:29;99723.50;;;-4.23;100.00
12879;BME280;20617;49.476;10.986;2022-12-18T07:21:36;99724.50;;;-4.19;100.00
12879;BME280;20617;49.476;10.986;2022-12-18T07:23:42;99712.03;;;-4.13;100.00
12879;BME280;20617;49.476;10.986;2022-12-18T07:25:50;99710.53;;;-4.08;100.00
12879;BME280;20617;49.476;10.986;2022-12-18T07:27:54;99715.69;;;-4.06;100.00
12879;BME280;20617;49.476;10.986;2022-12-18T07:29:59;99724.13;;;-4.07;100.00
12879;BME280;20617;49.476;10.986;2022-12-18T07:32:07;99723.59;;;-3.99;100.00
12879;BME280;20617;49.476;10.986;2022-12-18T07:34:13;99736.72;;;-3.90;100.00
12879;BME280;20617;49.476;10.986;2022-12-18T07:36:19;99735.25;;;-3.83;100.00
12879;BME280;20617;49.476;10.986;2022-12-18T07:38:30;99741.22;;;-3.82;100.00
12879;BME280;20617;49.476;10.986;2022-12-18T07:40:35;99742.81;;;-3.84;100.00
12879;BME280;20617;49.476;10.986;2022-12-18T07:42:39;99743.75;;;-3.82;100.00
12879;BME280;20617;49.476;10.986;2022-12-18T07:44:44;99752.44;;;-3.77;100.00
12879;BME280;20617;49.476;10.986;2022-12-18T07:46:49;99750.97;;;-3.72;100.00
12879;BME280;20617;49.476;10.986;2022-12-18T07:48:54;99757.19;;;-3.64;100.00
12879;BME280;20617;49.476;10.986;2022-12-18T07:50:59;99759.81;;;-3.62;100.00
12879;BME280;20617;49.476;10.986;2022-12-18T07:53:04;99765.41;;;-3.71;100.00
12879;BME280;20617;49.476;10.986;2022-12-18T07:55:11;99763.59;;;-3.74;100.00
12879;BME280;20617;49.476;10.986;2022-12-18T07:57:17;99761.00;;;-3.75;100.00
12879;BME280;20617;49.476;10.986;2022-12-18T07:59:41;99765.28;;;-3.74;100.00
12879;BME280;20617;49.476;10.986;2022-12-18T08:01:46;99769.91;;;-3.64;100.00
12879;BME280;20617;49.476;10.986;2022-12-18T08:03:52;99766.75;;;-3.58;100.00
12879;BME280;20617;49.476;10.986;2022-12-18T08:05:58;99769.47;;;-3.54;100.00
12879;BME280;20617;49.476;10.986;2022-12-18T08:08:04;99761.88;;;-3.52;100.00
12879;BME280;20617;49.476;10.986;2022-12-18T08:10:11;99762.00;;;-3.49;100.00
12879;BME280;20617;49.476;10.986;2022-12-18T08:12:16;99770.75;;;-3.43;100.00
12879;BME280;20617;49.476;10.986;2022-12-18T08:14:21;99771.09;;;-3.33;100.00
12879;BME280;20617;49.476;10.986;2022-12-18T08:16:26;99780.69;;;-3.26;100.00
12879;BME280;20617;49.476;10.986;2022-12-18T08:18:32;99781.06;;;-3.17;100.00
12879;BME280;20617;49.476;10.986;2022-12-18T08:20:39;99780.63;;;-3.05;100.00
12879;BME280;20617;49.476;10.986;2022-12-18T08:22:47;99770.03;;;-2.93;100.00
12879;BME280;20617;49.476;10.986;2022-12-18T08:24:52;99765.91;;;-2.90;100.00
12879;BME280;20617;49.476;10.986;2022-12-18T08:26:59;99766.84;;;-2.88;100.00
12879;BME280;20617;49.476;10.986;2022-12-18T08:29:24;99767.16;;;-2.79;100.00
12879;BME280;20617;49.476;10.986;2022-12-18T08:31:29;99769.84;;;-2.74;100.00
12879;BME280;20617;49.476;10.986;2022-12-18T08:33:35;99772.06;;;-2.83;100.00
12879;BME280;20617;49.476;10.986;2022-12-18T08:35:42;99774.03;;;-2.76;100.00
12879;BME280;20617;49.476;10.986;2022-12-18T08:37:47;99769.25;;;-2.67;100.00
12879;BME280;20617;49.476;10.986;2022-12-18T08:39:51;99769.56;;;-2.58;100.00
12879;BME280;20617;49.476;10.986;2022-12-18T08:41:59;99770.44;;;-2.57;100.00
12879;BME280;20617;49.476;10.986;2022-12-18T08:44:16;99762.78;;;-2.57;100.00
12879;BME280;20617;49.476;10.986;2022-12-18T08:46:36;99783.16;;;-2.59;100.00
12879;BME280;20617;49.476;10.986;2022-12-18T08:48:42;99782.47;;;-2.53;100.00
12879;BME280;20617;49.476;10.986;2022-12-18T08:50:54;99769.78;;;-2.52;100.00
12879;BME280;20617;49.476;10.986;2022-12-18T08:52:59;99774.78;;;-2.55;100.00
12879;BME280;20617;49.476;10.986;2022-12-18T08:55:04;99768.16;;;-2.49;100.00
12879;BME280;20617;49.476;10.986;2022-12-18T08:57:12;99759.78;;;-2.45;100.00
12879;BME280;20617;49.476;10.986;2022-12-18T08:59:18;99754.00;;;-2.41;100.00
12879;BME280;20617;49.476;10.986;2022-12-18T09:01:23;99758.19;;;-2.43;100.00
12879;BME280;20617;49.476;10.986;2022-12-18T09:03:29;99755.72;;;-2.40;100.00
12879;BME280;20617;49.476;10.986;2022-12-18T09:05:37;99751.31;;;-2.44;100.00
12879;BME280;20617;49.476;10.986;2022-12-18T09:07:42;99750.66;;;-2.39;100.00
12879;BME280;20617;49.476;10.986;2022-12-18T09:09:46;99758.19;;;-2.43;100.00
12879;BME280;20617;49.476;10.986;2022-12-18T09:11:51;99754.97;;;-2.38;100.00
12879;BME280;20617;49.476;10.986;2022-12-18T09:14:00;99754.41;;;-2.29;100.00
12879;BME280;20617;49.476;10.986;2022-12-18T09:16:06;99760.72;;;-2.18;100.00
12879;BME280;20617;49.476;10.986;2022-12-18T09:18:11;99761.59;;;-2.17;100.00
12879;BME280;20617;49.476;10.986;2022-12-18T09:20:17;99751.97;;;-2.26;100.00
12879;BME280;20617;49.476;10.986;2022-12-18T09:22:22;99761.97;;;-2.32;100.00
12879;BME280;20617;49.476;10.986;2022-12-18T09:24:30;99748.66;;;-2.23;100.00
12879;BME280;20617;49.476;10.986;2022-12-18T09:26:37;99759.72;;;-2.23;100.00
12879;BME280;20617;49.476;10.986;2022-12-18T09:28:47;99757.00;;;-2.28;100.00
12879;BME280;20617;49.476;10.986;2022-12-18T09:30:55;99757.91;;;-2.25;100.00
12879;BME280;20617;49.476;10.986;2022-12-18T09:33:00;99761.69;;;-2.14;100.00
12879;BME280;20617;49.476;10.986;2022-12-18T09:35:07;99756.94;;;-2.03;100.00
12879;BME280;20617;49.476;10.986;2022-12-18T09:37:11;99745.19;;;-1.98;100.00
12879;BME280;20617;49.476;10.986;2022-12-18T09:39:16;99748.66;;;-1.96;100.00
12879;BME280;20617;49.476;10.986;2022-12-18T09:41:40;99741.88;;;-1.96;100.00
12879;BME280;20617;49.476;10.986;2022-12-18T09:43:48;99740.25;;;-1.94;100.00
12879;BME280;20617;49.476;10.986;2022-12-18T09:46:00;99730.31;;;-1.85;100.00
12879;BME280;20617;49.476;10.986;2022-12-18T09:48:09;99727.44;;;-1.68;100.00
12879;BME280;20617;49.476;10.986;2022-12-18T09:50:24;99724.09;;;-1.66;100.00
12879;BME280;20617;49.476;10.986;2022-12-18T09:52:34;99721.13;;;-1.79;100.00
12879;BME280;20617;49.476;10.986;2022-12-18T09:54:41;99727.41;;;-1.95;100.00
12879;BME280;20617;49.476;10.986;2022-12-18T09:56:46;99731.28;;;-2.08;100.00
12879;BME280;20617;49.476;10.986;2022-12-18T09:58:57;99732.03;;;-2.11;100.00
12879;BME280;20617;49.476;10.986;2022-12-18T10:01:10;99727.56;;;-2.18;100.00
12879;BME280;20617;49.476;10.986;2022-12-18T10:03:17;99730.03;;;-2.21;100.00
12879;BME280;20617;49.476;10.986;2022-12-18T10:05:30;99734.69;;;-2.33;100.00
12879;BME280;20617;49.476;10.986;2022-12-18T10:07:47;99731.19;;;-2.37;100.00
12879;BME280;20617;49.476;10.986;2022-12-18T10:09:56;99723.41;;;-2.41;100.00
12879;BME280;20617;49.476;10.986;2022-12-18T10:12:08;99726.81;;;-2.41;100.00
12879;BME280;20617;49.476;10.986;2022-12-18T10:14:20;99728.63;;;-2.37;100.00
12879;BME280;20617;49.476;10.986;2022-12-18T10:16:36;99722.13;;;-2.29;100.00
12879;BME280;20617;49.476;10.986;2022-12-18T10:19:08;99713.03;;;-2.20;100.00
12879;BME280;20617;49.476;10.986;2022-12-18T10:21:21;99704.53;;;-2.21;100.00
12879;BME280;20617;49.476;10.986;2022-12-18T10:23:33;99708.22;;;-2.11;100.00
12879;BME280;20617;49.476;10.986;2022-12-18T10:25:53;99697.28;;;-2.07;100.00
12879;BME280;20617;49.476;10.986;2022-12-18T10:28:08;99694.63;;;-2.10;100.00
12879;BME280;20617;49.476;10.986;2022-12-18T10:30:16;99703.22;;;-2.08;100.00
12879;BME280;20617;49.476;10.986;2022-12-18T10:32:26;99709.16;;;-2.09;100.00
12879;BME280;20617;49.476;10.986;2022-12-18T10:34:32;99706.53;;;-2.11;100.00
12879;BME280;20617;49.476;10.986;2022-12-18T10:36:37;99700.47;;;-2.14;100.00
12879;BME280;20617;49.476;10.986;2022-12-18T10:38:42;99693.75;;;-2.12;100.00
12879;BME280;20617;49.476;10.986;2022-12-18T10:40:48;99702.16;;;-2.15;100.00
12879;BME280;20617;49.476;10.986;2022-12-18T10:43:09;99710.69;;;-2.13;100.00
12879;BME280;20617;49.476;10.986;2022-12-18T10:45:16;99710.31;;;-1.98;100.00
12879;BME280;20617;49.476;10.986;2022-12-18T10:47:24;99709.88;;;-1.86;100.00
12879;BME280;20617;49.476;10.986;2022-12-18T10:49:31;99710.94;;;-1.78;100.00
12879;BME280;20617;49.476;10.986;2022-12-18T10:51:38;99705.53;;;-1.60;100.00
12879;BME280;20617;49.476;10.986;2022-12-18T10:53:52;99701.34;;;-1.58;100.00
12879;BME280;20617;49.476;10.986;2022-12-18T10:55:58;99703.88;;;-1.58;100.00
12879;BME280;20617;49.476;10.986;2022-12-18T10:58:16;99700.53;;;-1.57;100.00
12879;BME280;20617;49.476;10.986;2022-12-18T11:00:29;99708.97;;;-1.60;100.00
12879;BME280;20617;49.476;10.986;2022-12-18T11:02:37;99717.56;;;-1.56;100.00